Napa — WDE8110 — position and weather

sailwx.info

Track history (hours):
 
Tides and Currents Weather Stations Pressure Air Temp Water Temp Dewpoint Dewpoint Depression Visibility Wind Speed Wind Dir Waves Ship Positions

Napa

Owner: Golden Gate Bridge Hwy. and Transportation District, San Francisco, CA. More information available from US FCC via Universal Licensing System and Coast Guard Vessel Documentation Center.

Last reported at 2018-Jan-19 19:03 UTC. Time now 2018-Jan-23 11:45 UTC.
Position N 37°57' W 122°31'.

Length 38 m; draft 0.15 m.

Type: Passenger vessel. MMSI: 36677150.

Date/timePositionNaut miles runAvg speedWind from/ knotsBaromVisibWave heightAir tempDewpointWater temp
2018-Jan-19 19:03N 37°57' W 122°31'0 0.0
2018-Jan-19 19:00N 37°57' W 122°31'0 0.0
2018-Jan-19 18:30N 37°57' W 122°31'0 0.0
2018-Jan-19 18:00N 37°57' W 122°31'0 0.0
2018-Jan-19 17:29N 37°57' W 122°31'0 0.0
2018-Jan-19 17:00N 37°57' W 122°31'0 0.0
2018-Jan-19 16:30N 37°57' W 122°31'917.0
2018-Jan-19 16:00N 37°50' W 122°24'1 1.9
2018-Jan-19 15:31N 37°51' W 122°24'815.0
2018-Jan-19 15:00N 37°57' W 122°30'1019.1
2018-Jan-19 14:31N 37°49' W 122°23'713.2
2018-Jan-19 14:00N 37°55' W 122°27'3 6.0
2018-Jan-19 13:29N 37°57' W 122°30'1 0.1
2018-Jan-19 03:47N 37°56' W 122°30'725.7
2018-Jan-19 03:31N 37°51' W 122°24'3 5.1
2018-Jan-19 03:00N 37°53' W 122°26'4 7.8
2018-Jan-19 02:28N 37°56' W 122°30'1020.9
2018-Jan-19 02:00N 37°48' W 122°24'611.2
2018-Jan-19 01:30N 37°53' W 122°26'510.1
2018-Jan-19 01:00N 37°57' W 122°30'1020.9
2018-Jan-19 00:30N 37°48' W 122°24'5 9.1
2018-Jan-19 00:01N 37°52' W 122°25'612.5
2018-Jan-18 23:30N 37°57' W 122°30'1020.8
2018-Jan-18 23:00N 37°48' W 122°24'816.3
2018-Jan-18 22:30N 37°55' W 122°28'3 5.6
2018-Jan-18 22:00N 37°57' W 122°31'0 0.0
2018-Jan-18 21:30N 37°57' W 122°31'0 0.1
2018-Jan-18 20:58N 37°57' W 122°30'0 0.1
2018-Jan-18 20:07N 37°57' W 122°31'0 0.0
2018-Jan-18 20:00N 37°57' W 122°31'0 0.0
2018-Jan-18 19:29N 37°57' W 122°31'1021.8
2018-Jan-18 19:00N 37°48' W 122°23'4 8.5
2018-Jan-18 18:30N 37°52' W 122°25'612.7
2018-Jan-18 18:01N 37°57' W 122°30'4 7.0
2018-Jan-18 17:30N 37°55' W 122°27'714.9
2018-Jan-18 17:00N 37°48' W 122°24'1019.5
2018-Jan-18 16:30N 37°56' W 122°30'2 4.6
2018-Jan-18 16:01N 37°55' W 122°27'816.1
2018-Jan-18 15:30N 37°48' W 122°23'1018.5
2018-Jan-18 14:57N 37°57' W 122°30'920.3
2018-Jan-18 14:31N 37°50' W 122°23'510.9
2018-Jan-18 14:01N 37°54' W 122°27'4 7.1
2018-Jan-18 13:30N 37°57' W 122°30'0 0.0
2018-Jan-18 03:48N 37°57' W 122°30'723.8
2018-Jan-18 03:31N 37°52' W 122°24'1 2.2
2018-Jan-18 03:01N 37°53' W 122°25'611.5
2018-Jan-18 02:30N 37°57' W 122°30'1021.1
2018-Jan-18 02:00N 37°48' W 122°24'510.7
2018-Jan-18 01:30N 37°53' W 122°26'510.7
2018-Jan-18 01:00N 37°57' W 122°30'7 6.7
2018-Jan-18 00:01N 37°52' W 122°25'233.6
2018-Jan-17 23:57N 37°53' W 122°26'  
2018-Jan-12 15:00N 37°56' W 122°29'919.2
2018-Jan-12 14:30N 37°48' W 122°23'917.6
2018-Jan-12 14:00N 37°56' W 122°28'2 3.8
2018-Jan-12 13:30N 37°57' W 122°30'0 0.0
2018-Jan-12 03:48N 37°57' W 122°30'723.2
2018-Jan-12 03:31N 37°52' W 122°24'1 2.7
2018-Jan-12 03:01N 37°53' W 122°26'611.2
2018-Jan-12 02:30N 37°57' W 122°30'1021.0
2018-Jan-12 02:00N 37°48' W 122°24'5 9.6
2018-Jan-12 01:31N 37°52' W 122°25'611.8
2018-Jan-12 01:00N 37°57' W 122°30'1021.0
2018-Jan-12 00:30N 37°48' W 122°24'510.2
2018-Jan-12 00:01N 37°53' W 122°25'611.3
2018-Jan-11 23:30N 37°57' W 122°30'1020.5
2018-Jan-11 23:00N 37°48' W 122°24'714.7
2018-Jan-11 22:31N 37°54' W 122°27'4 7.2
2018-Jan-11 22:00N 37°57' W 122°31'0 0.0
2018-Jan-11 21:30N 37°57' W 122°31'0 0.0
2018-Jan-11 21:00N 37°57' W 122°31'0 0.0
2018-Jan-11 20:30N 37°57' W 122°31'0 0.0
2018-Jan-11 20:00N 37°57' W 122°31'0 0.1
2018-Jan-11 19:30N 37°57' W 122°30'1020.2
2018-Jan-11 19:01N 37°49' W 122°23'3 6.6
2018-Jan-11 18:30N 37°52' W 122°25'713.5
2018-Jan-11 18:00N 37°57' W 122°30'3 5.8
2018-Jan-11 17:31N 37°55' W 122°27'816.1
2018-Jan-11 17:01N 37°48' W 122°24'918.2
2018-Jan-11 16:31N 37°56' W 122°29'1 1.9
2018-Jan-11 16:00N 37°56' W 122°30'1019.8
2018-Jan-11 15:30N 37°48' W 122°24'1020.8
2018-Jan-11 15:00N 37°57' W 122°30'918.5
2018-Jan-11 14:31N 37°49' W 122°23'611.4
2018-Jan-11 14:00N 37°54' W 122°27'4 7.1
2018-Jan-11 13:30N 37°57' W 122°30'0 0.0
2018-Jan-11 03:47N 37°57' W 122°30'826.6
2018-Jan-11 03:30N 37°51' W 122°24'2 4.4
2018-Jan-11 03:00N 37°53' W 122°26'510.8
2018-Jan-11 02:31N 37°57' W 122°30'1020.9
2018-Jan-11 02:00N 37°48' W 122°24'611.2
2018-Jan-11 01:30N 37°53' W 122°26'510.2
2018-Jan-11 01:00N 37°57' W 122°30'1021.1
2018-Jan-11 00:30N 37°48' W 122°24'510.7
2018-Jan-11 00:01N 37°53' W 122°26'510.8
2018-Jan-10 23:30N 37°57' W 122°30'1020.9
2018-Jan-10 23:00N 37°48' W 122°24'713.5
2018-Jan-10 22:30N 37°54' W 122°27'4 7.8
2018-Jan-10 22:00N 37°57' W 122°31'0 0.0
2018-Jan-10 21:30N 37°57' W 122°31'0 0.0
2018-Jan-10 21:00N 37°57' W 122°31'0 0.0
2018-Jan-10 20:31N 37°57' W 122°31'0 0.1
2018-Jan-10 20:01N 37°57' W 122°30'0 0.1
2018-Jan-10 19:30N 37°57' W 122°31'1020.3
2018-Jan-10 19:01N 37°49' W 122°23'3 5.5
2018-Jan-10 18:30N 37°51' W 122°24'714.1
2018-Jan-10 17:59N 37°57' W 122°30'3 5.8
2018-Jan-10 17:31N 37°55' W 122°27'816.4
2018-Jan-10 17:00N 37°48' W 122°24'917.7
2018-Jan-10 16:30N 37°56' W 122°28'1 2.0
2018-Jan-10 16:01N 37°56' W 122°30'1019.3
2018-Jan-10 15:30N 37°48' W 122°24'1020.9
2018-Jan-10 15:00N 37°57' W 122°30'815.4
2018-Jan-10 14:31N 37°51' W 122°24'3 6.8
2018-Jan-10 14:01N 37°54' W 122°26'4 8.7
2018-Jan-10 13:30N 37°57' W 122°30'0 0.0
2018-Jan-10 03:48N 37°57' W 122°30'724.7
2018-Jan-10 03:31N 37°52' W 122°24'1 3.0
2018-Jan-10 03:01N 37°53' W 122°26'611.2
2018-Jan-10 02:30N 37°57' W 122°30'1021.1
2018-Jan-10 02:01N 37°48' W 122°24'510.5
2018-Jan-10 01:31N 37°53' W 122°26'611.0
2018-Jan-10 01:00N 37°57' W 122°30'1020.8
2018-Jan-10 00:30N 37°48' W 122°24'510.0
2018-Jan-10 00:01N 37°53' W 122°25'611.5
2018-Jan-09 23:30N 37°57' W 122°30'1021.0
2018-Jan-09 23:00N 37°48' W 122°24'612.5
2018-Jan-09 22:31N 37°54' W 122°26'5 9.0
2018-Jan-09 22:00N 37°57' W 122°31'0 0.0
2018-Jan-09 21:30N 37°57' W 122°31'0 0.0
2018-Jan-09 21:00N 37°57' W 122°31'0 0.0
2018-Jan-09 20:30N 37°57' W 122°31'0 0.0
2018-Jan-09 20:00N 37°57' W 122°31'0 0.2
2018-Jan-09 19:31N 37°57' W 122°30'  
Track history (hours):
 
Tides and Currents Weather Stations Pressure Air Temp Water Temp Dewpoint Dewpoint Depression Visibility Wind Speed Wind Dir Waves Ship Positions

Napa

Owner: Golden Gate Bridge Hwy. and Transportation District, San Francisco, CA. More information available from US FCC via Universal Licensing System and Coast Guard Vessel Documentation Center.

Last reported at 2018-Jan-19 19:03 UTC. Time now 2018-Jan-23 11:45 UTC.
Position N 37°57' W 122°31'.

Length 38 m; draft 0.15 m.

Type: Passenger vessel. MMSI: 36677150.

Date/timePositionNaut miles runAvg speedWind from/ knotsBaromVisibWave heightAir tempDewpointWater temp
2018-Jan-19 19:03N 37°57' W 122°31'0 0.0
2018-Jan-19 19:00N 37°57' W 122°31'0 0.0
2018-Jan-19 18:30N 37°57' W 122°31'0 0.0
2018-Jan-19 18:00N 37°57' W 122°31'0 0.0
2018-Jan-19 17:29N 37°57' W 122°31'0 0.0
2018-Jan-19 17:00N 37°57' W 122°31'0 0.0
2018-Jan-19 16:30N 37°57' W 122°31'917.0
2018-Jan-19 16:00N 37°50' W 122°24'1 1.9
2018-Jan-19 15:31N 37°51' W 122°24'815.0
2018-Jan-19 15:00N 37°57' W 122°30'1019.1
2018-Jan-19 14:31N 37°49' W 122°23'713.2
2018-Jan-19 14:00N 37°55' W 122°27'3 6.0
2018-Jan-19 13:29N 37°57' W 122°30'1 0.1
2018-Jan-19 03:47N 37°56' W 122°30'725.7
2018-Jan-19 03:31N 37°51' W 122°24'3 5.1
2018-Jan-19 03:00N 37°53' W 122°26'4 7.8
2018-Jan-19 02:28N 37°56' W 122°30'1020.9
2018-Jan-19 02:00N 37°48' W 122°24'611.2
2018-Jan-19 01:30N 37°53' W 122°26'510.1
2018-Jan-19 01:00N 37°57' W 122°30'1020.9
2018-Jan-19 00:30N 37°48' W 122°24'5 9.1
2018-Jan-19 00:01N 37°52' W 122°25'612.5
2018-Jan-18 23:30N 37°57' W 122°30'1020.8
2018-Jan-18 23:00N 37°48' W 122°24'816.3
2018-Jan-18 22:30N 37°55' W 122°28'3 5.6
2018-Jan-18 22:00N 37°57' W 122°31'0 0.0
2018-Jan-18 21:30N 37°57' W 122°31'0 0.1
2018-Jan-18 20:58N 37°57' W 122°30'0 0.1
2018-Jan-18 20:07N 37°57' W 122°31'0 0.0
2018-Jan-18 20:00N 37°57' W 122°31'0 0.0
2018-Jan-18 19:29N 37°57' W 122°31'1021.8
2018-Jan-18 19:00N 37°48' W 122°23'4 8.5
2018-Jan-18 18:30N 37°52' W 122°25'612.7
2018-Jan-18 18:01N 37°57' W 122°30'4 7.0
2018-Jan-18 17:30N 37°55' W 122°27'714.9
2018-Jan-18 17:00N 37°48' W 122°24'1019.5
2018-Jan-18 16:30N 37°56' W 122°30'2 4.6
2018-Jan-18 16:01N 37°55' W 122°27'816.1
2018-Jan-18 15:30N 37°48' W 122°23'1018.5
2018-Jan-18 14:57N 37°57' W 122°30'920.3
2018-Jan-18 14:31N 37°50' W 122°23'510.9
2018-Jan-18 14:01N 37°54' W 122°27'4 7.1
2018-Jan-18 13:30N 37°57' W 122°30'0 0.0
2018-Jan-18 03:48N 37°57' W 122°30'723.8
2018-Jan-18 03:31N 37°52' W 122°24'1 2.2
2018-Jan-18 03:01N 37°53' W 122°25'611.5
2018-Jan-18 02:30N 37°57' W 122°30'1021.1
2018-Jan-18 02:00N 37°48' W 122°24'510.7
2018-Jan-18 01:30N 37°53' W 122°26'510.7
2018-Jan-18 01:00N 37°57' W 122°30'7 6.7
2018-Jan-18 00:01N 37°52' W 122°25'233.6
2018-Jan-17 23:57N 37°53' W 122°26'  
2018-Jan-12 15:00N 37°56' W 122°29'919.2
2018-Jan-12 14:30N 37°48' W 122°23'917.6
2018-Jan-12 14:00N 37°56' W 122°28'2 3.8
2018-Jan-12 13:30N 37°57' W 122°30'0 0.0
2018-Jan-12 03:48N 37°57' W 122°30'723.2
2018-Jan-12 03:31N 37°52' W 122°24'1 2.7
2018-Jan-12 03:01N 37°53' W 122°26'611.2
2018-Jan-12 02:30N 37°57' W 122°30'1021.0
2018-Jan-12 02:00N 37°48' W 122°24'5 9.6
2018-Jan-12 01:31N 37°52' W 122°25'611.8
2018-Jan-12 01:00N 37°57' W 122°30'1021.0
2018-Jan-12 00:30N 37°48' W 122°24'510.2
2018-Jan-12 00:01N 37°53' W 122°25'611.3
2018-Jan-11 23:30N 37°57' W 122°30'1020.5
2018-Jan-11 23:00N 37°48' W 122°24'714.7
2018-Jan-11 22:31N 37°54' W 122°27'4 7.2
2018-Jan-11 22:00N 37°57' W 122°31'0 0.0
2018-Jan-11 21:30N 37°57' W 122°31'0 0.0
2018-Jan-11 21:00N 37°57' W 122°31'0 0.0
2018-Jan-11 20:30N 37°57' W 122°31'0 0.0
2018-Jan-11 20:00N 37°57' W 122°31'0 0.1
2018-Jan-11 19:30N 37°57' W 122°30'1020.2
2018-Jan-11 19:01N 37°49' W 122°23'3 6.6
2018-Jan-11 18:30N 37°52' W 122°25'713.5
2018-Jan-11 18:00N 37°57' W 122°30'3 5.8
2018-Jan-11 17:31N 37°55' W 122°27'816.1
2018-Jan-11 17:01N 37°48' W 122°24'918.2
2018-Jan-11 16:31N 37°56' W 122°29'1 1.9
2018-Jan-11 16:00N 37°56' W 122°30'1019.8
2018-Jan-11 15:30N 37°48' W 122°24'1020.8
2018-Jan-11 15:00N 37°57' W 122°30'918.5
2018-Jan-11 14:31N 37°49' W 122°23'611.4
2018-Jan-11 14:00N 37°54' W 122°27'4 7.1
2018-Jan-11 13:30N 37°57' W 122°30'0 0.0
2018-Jan-11 03:47N 37°57' W 122°30'826.6
2018-Jan-11 03:30N 37°51' W 122°24'2 4.4
2018-Jan-11 03:00N 37°53' W 122°26'510.8
2018-Jan-11 02:31N 37°57' W 122°30'1020.9
2018-Jan-11 02:00N 37°48' W 122°24'611.2
2018-Jan-11 01:30N 37°53' W 122°26'510.2
2018-Jan-11 01:00N 37°57' W 122°30'1021.1
2018-Jan-11 00:30N 37°48' W 122°24'510.7
2018-Jan-11 00:01N 37°53' W 122°26'510.8
2018-Jan-10 23:30N 37°57' W 122°30'1020.9
2018-Jan-10 23:00N 37°48' W 122°24'713.5
2018-Jan-10 22:30N 37°54' W 122°27'4 7.8
2018-Jan-10 22:00N 37°57' W 122°31'0 0.0
2018-Jan-10 21:30N 37°57' W 122°31'0 0.0
2018-Jan-10 21:00N 37°57' W 122°31'0 0.0
2018-Jan-10 20:31N 37°57' W 122°31'0 0.1
2018-Jan-10 20:01N 37°57' W 122°30'0 0.1
2018-Jan-10 19:30N 37°57' W 122°31'1020.3
2018-Jan-10 19:01N 37°49' W 122°23'3 5.5
2018-Jan-10 18:30N 37°51' W 122°24'714.1
2018-Jan-10 17:59N 37°57' W 122°30'3 5.8
2018-Jan-10 17:31N 37°55' W 122°27'816.4
2018-Jan-10 17:00N 37°48' W 122°24'917.7
2018-Jan-10 16:30N 37°56' W 122°28'1 2.0
2018-Jan-10 16:01N 37°56' W 122°30'1019.3
2018-Jan-10 15:30N 37°48' W 122°24'1020.9
2018-Jan-10 15:00N 37°57' W 122°30'815.4
2018-Jan-10 14:31N 37°51' W 122°24'3 6.8
2018-Jan-10 14:01N 37°54' W 122°26'4 8.7
2018-Jan-10 13:30N 37°57' W 122°30'0 0.0
2018-Jan-10 03:48N 37°57' W 122°30'724.7
2018-Jan-10 03:31N 37°52' W 122°24'1 3.0
2018-Jan-10 03:01N 37°53' W 122°26'611.2
2018-Jan-10 02:30N 37°57' W 122°30'1021.1
2018-Jan-10 02:01N 37°48' W 122°24'510.5
2018-Jan-10 01:31N 37°53' W 122°26'611.0
2018-Jan-10 01:00N 37°57' W 122°30'1020.8
2018-Jan-10 00:30N 37°48' W 122°24'510.0
2018-Jan-10 00:01N 37°53' W 122°25'611.5
2018-Jan-09 23:30N 37°57' W 122°30'1021.0
2018-Jan-09 23:00N 37°48' W 122°24'612.5
2018-Jan-09 22:31N 37°54' W 122°26'5 9.0
2018-Jan-09 22:00N 37°57' W 122°31'0 0.0
2018-Jan-09 21:30N 37°57' W 122°31'0 0.0
2018-Jan-09 21:00N 37°57' W 122°31'0 0.0
2018-Jan-09 20:30N 37°57' W 122°31'0 0.0
2018-Jan-09 20:00N 37°57' W 122°31'0 0.2
2018-Jan-09 19:31N 37°57' W 122°30'  

Dump ship's entire track history